KCWA/CWA METAR and TAF weather

Enter ICAO airport designator
Station Type Date Time Source
KCWA METAR 2020/09/26 22:47 UTC NOAA

KCWA 262247Z 15006KT 10SM SCT014 BKN026 19/17 A2953


Station Type Date Time Source
KCWA Decoded METAR 2020/09/26 22:47 UTC NOAA

Mosinee / Central Wisconsin, WI, United States (KCWA) 44-47N 089-40W
Sep 26, 2020 - 06:47 PM EDT / 2020.09.26 2247 UTC
Wind: from the SSE (150 degrees) at 7 MPH (6 KT):0
Visibility: 10 mile(s):0
Sky conditions: mostly cloudy
Temperature: 66 F (19 C)
Dew Point: 62 F (17 C)
Relative Humidity: 88%
Pressure (altimeter): 29.53 in. Hg (1000 hPa)
ob: KCWA 262247Z 15006KT 10SM SCT014 BKN026 19/17 A2953
cycle: 23

Station Type Date Time Source
KCWA TAF 2020/09/26 22:57 UTC NOAA

TAF
AMD KCWA 262154Z 2622/2718 15009G17KT P6SM VCSH SCT025 BKN035
TEMPO 2622/2623 BKN025
FM270100 18010KT P6SM OVC025
FM270300 21010G16KT P6SM SCT120 BKN250 WS020/23040KT
FM271200 25008KT P6SM SCT200
FM271600 26010G18KT P6SM VCSH SCT050 BKN150

Example: see airport list